sensor_id;sensor_type;location;lat;lon;timestamp;pressure;altitude;pressure_sealevel;temperature;humidity
7018;BME280;3549;42.162;24.726;2022-11-02T00:01:47;47603.66;;;-141.97;63.75
7018;BME280;3549;42.162;24.726;2022-11-02T00:04:12;47659.38;;;-141.97;63.62
7018;BME280;3549;42.162;24.726;2022-11-02T00:06:38;47561.38;;;-141.97;63.00
7018;BME280;3549;42.162;24.726;2022-11-02T00:09:05;47553.69;;;-141.97;62.89
7018;BME280;3549;42.162;24.726;2022-11-02T00:11:31;47572.91;;;-141.97;62.97
7018;BME280;3549;42.162;24.726;2022-11-02T00:13:56;47563.28;;;-141.97;63.04
7018;BME280;3549;42.162;24.726;2022-11-02T00:16:22;47580.59;;;-141.97;63.53
7018;BME280;3549;42.162;24.726;2022-11-02T00:18:51;47540.22;;;-141.97;63.73
7018;BME280;3549;42.162;24.726;2022-11-02T00:21:19;47511.38;;;-141.97;63.94
7018;BME280;3549;42.162;24.726;2022-11-02T00:23:46;47557.53;;;-141.97;64.08
7018;BME280;3549;42.162;24.726;2022-11-02T00:26:11;47547.91;;;-141.97;64.13
7018;BME280;3549;42.162;24.726;2022-11-02T00:28:37;47574.81;;;-141.97;64.21
7018;BME280;3549;42.162;24.726;2022-11-02T00:31:02;47576.75;;;-141.97;64.68
7018;BME280;3549;42.162;24.726;2022-11-02T00:33:28;47563.28;;;-141.97;64.37
7018;BME280;3549;42.162;24.726;2022-11-02T00:35:54;47559.44;;;-141.97;64.81
7018;BME280;3549;42.162;24.726;2022-11-02T00:38:20;47542.16;;;-141.97;64.88
7018;BME280;3549;42.162;24.726;2022-11-02T00:40:45;47540.22;;;-141.97;65.05
7018;BME280;3549;42.162;24.726;2022-11-02T00:43:11;47553.69;;;-141.97;65.24
7018;BME280;3549;42.162;24.726;2022-11-02T00:45:36;47547.91;;;-141.97;65.27
7018;BME280;3549;42.162;24.726;2022-11-02T00:48:02;47553.69;;;-141.97;65.21
7018;BME280;3549;42.162;24.726;2022-11-02T00:50:27;47546.00;;;-141.97;65.50
7018;BME280;3549;42.162;24.726;2022-11-02T00:52:53;47561.38;;;-141.97;65.88
7018;BME280;3549;42.162;24.726;2022-11-02T00:55:18;47569.06;;;-141.97;66.02
7018;BME280;3549;42.162;24.726;2022-11-02T00:57:43;47582.50;;;-141.97;65.96
7018;BME280;3549;42.162;24.726;2022-11-02T01:00:10;47551.75;;;-141.97;66.15
7018;BME280;3549;42.162;24.726;2022-11-02T01:02:36;47561.38;;;-141.97;65.74
7018;BME280;3549;42.162;24.726;2022-11-02T01:05:03;47555.59;;;-141.97;65.38
7018;BME280;3549;42.162;24.726;2022-11-02T01:07:28;47540.22;;;-141.97;65.37
7018;BME280;3549;42.162;24.726;2022-11-02T01:09:54;47542.16;;;-141.97;65.48
7018;BME280;3549;42.162;24.726;2022-11-02T01:12:19;47582.50;;;-141.97;65.71
7018;BME280;3549;42.162;24.726;2022-11-02T01:14:48;47590.19;;;-141.97;65.84
7018;BME280;3549;42.162;24.726;2022-11-02T01:17:14;47692.06;;;-141.97;65.67
7018;BME280;3549;42.162;24.726;2022-11-02T01:19:39;47580.59;;;-141.97;65.46
7018;BME280;3549;42.162;24.726;2022-11-02T01:22:05;47569.06;;;-141.97;65.78
7018;BME280;3549;42.162;24.726;2022-11-02T01:24:30;47576.75;;;-141.97;66.20
7018;BME280;3549;42.162;24.726;2022-11-02T01:26:56;47530.59;;;-141.97;66.01
7018;BME280;3549;42.162;24.726;2022-11-02T01:29:21;47572.91;;;-141.97;65.99
7018;BME280;3549;42.162;24.726;2022-11-02T01:31:47;47592.13;;;-141.97;65.95
7018;BME280;3549;42.162;24.726;2022-11-02T01:34:13;47565.22;;;-141.97;65.85
7018;BME280;3549;42.162;24.726;2022-11-02T01:36:38;47680.53;;;-141.97;66.65
7018;BME280;3549;42.162;24.726;2022-11-02T01:39:04;47540.22;;;-141.97;66.04
7018;BME280;3549;42.162;24.726;2022-11-02T01:41:29;47684.38;;;-141.97;66.19
7018;BME280;3549;42.162;24.726;2022-11-02T01:43:56;47601.72;;;-141.97;66.06
7018;BME280;3549;42.162;24.726;2022-11-02T01:46:43;47592.13;;;-141.97;66.28
7018;BME280;3549;42.162;24.726;2022-11-02T01:49:12;47561.38;;;-141.97;67.30
7018;BME280;3549;42.162;24.726;2022-11-02T01:51:55;47534.44;;;-141.97;67.27
7018;BME280;3549;42.162;24.726;2022-11-02T01:54:25;47561.38;;;-141.97;67.32
7018;BME280;3549;42.162;24.726;2022-11-02T01:56:56;47559.44;;;-141.97;67.90
7018;BME280;3549;42.162;24.726;2022-11-02T01:59:36;47569.06;;;-141.97;67.93
7018;BME280;3549;42.162;24.726;2022-11-02T02:02:04;47553.69;;;-141.97;67.58
7018;BME280;3549;42.162;24.726;2022-11-02T02:04:33;47546.00;;;-141.97;68.06
7018;BME280;3549;42.162;24.726;2022-11-02T02:07:00;47561.38;;;-141.97;68.94
7018;BME280;3549;42.162;24.726;2022-11-02T02:09:27;47663.22;;;-141.97;68.29
7018;BME280;3549;42.162;24.726;2022-11-02T02:11:52;47594.03;;;-141.97;68.40
7018;BME280;3549;42.162;24.726;2022-11-02T02:14:19;47546.00;;;-141.97;68.46
7018;BME280;3549;42.162;24.726;2022-11-02T02:19:42;47649.78;;;-141.97;67.95
7018;BME280;3549;42.162;24.726;2022-11-02T02:27:54;47576.75;;;-141.97;71.24
7018;BME280;3549;42.162;24.726;2022-11-02T02:30:26;47580.59;;;-141.97;72.03
7018;BME280;3549;42.162;24.726;2022-11-02T02:32:58;47578.66;;;-141.97;72.28
7018;BME280;3549;42.162;24.726;2022-11-02T02:36:12;47553.69;;;-141.97;71.65
7018;BME280;3549;42.162;24.726;2022-11-02T02:44:21;47607.50;;;-141.97;71.22
7018;BME280;3549;42.162;24.726;2022-11-02T02:46:56;47588.28;;;-141.97;71.25
7018;BME280;3549;42.162;24.726;2022-11-02T02:49:53;47544.06;;;-141.97;71.08
7018;BME280;3549;42.162;24.726;2022-11-02T02:52:21;47544.06;;;-141.97;70.90
7018;BME280;3549;42.162;24.726;2022-11-02T02:54:49;47524.84;;;-141.97;70.85
7018;BME280;3549;42.162;24.726;2022-11-02T02:57:18;47570.97;;;-141.97;70.76
7018;BME280;3549;42.162;24.726;2022-11-02T02:59:46;47590.19;;;-141.97;70.74
7018;BME280;3549;42.162;24.726;2022-11-02T03:02:31;47595.97;;;-141.97;71.02
7018;BME280;3549;42.162;24.726;2022-11-02T03:04:57;47561.38;;;-141.97;70.96
7018;BME280;3549;42.162;24.726;2022-11-02T03:07:25;47565.22;;;-141.97;71.24
7018;BME280;3549;42.162;24.726;2022-11-02T03:12:31;47546.00;;;-141.97;73.19
7018;BME280;3549;42.162;24.726;2022-11-02T03:18:07;47567.13;;;-141.97;72.49
7018;BME280;3549;42.162;24.726;2022-11-02T03:28:09;47549.84;;;-141.97;72.03
7018;BME280;3549;42.162;24.726;2022-11-02T03:30:45;47601.72;;;-141.97;71.61
7018;BME280;3549;42.162;24.726;2022-11-02T03:33:26;47544.06;;;-141.97;71.86
7018;BME280;3549;42.162;24.726;2022-11-02T03:36:05;47565.22;;;-141.97;71.57
7018;BME280;3549;42.162;24.726;2022-11-02T03:38:58;47576.75;;;-141.97;71.42
7018;BME280;3549;42.162;24.726;2022-11-02T03:41:27;47580.59;;;-141.97;71.56
7018;BME280;3549;42.162;24.726;2022-11-02T03:44:00;47542.16;;;-141.97;71.87
7018;BME280;3549;42.162;24.726;2022-11-02T03:46:30;47530.59;;;-141.97;72.71
7018;BME280;3549;42.162;24.726;2022-11-02T03:48:59;47509.47;;;-141.97;73.39
7018;BME280;3549;42.162;24.726;2022-11-02T03:51:28;47565.22;;;-141.97;73.68
7018;BME280;3549;42.162;24.726;2022-11-02T03:54:04;47565.22;;;-141.97;73.89
7018;BME280;3549;42.162;24.726;2022-11-02T03:56:35;47595.97;;;-141.97;73.46
7018;BME280;3549;42.162;24.726;2022-11-02T03:59:02;47615.19;;;-141.97;72.81
7018;BME280;3549;42.162;24.726;2022-11-02T04:01:28;47594.03;;;-141.97;72.40
7018;BME280;3549;42.162;24.726;2022-11-02T04:03:55;47582.50;;;-141.97;72.06
7018;BME280;3549;42.162;24.726;2022-11-02T04:06:21;47578.66;;;-141.97;72.12
7018;BME280;3549;42.162;24.726;2022-11-02T04:08:48;47538.28;;;-141.97;73.66
7018;BME280;3549;42.162;24.726;2022-11-02T04:11:14;47567.13;;;-141.97;74.75
7018;BME280;3549;42.162;24.726;2022-11-02T04:13:58;47538.28;;;-141.97;76.02
7018;BME280;3549;42.162;24.726;2022-11-02T04:16:42;47661.31;;;-141.97;76.85
7018;BME280;3549;42.162;24.726;2022-11-02T04:19:09;47549.84;;;-141.97;77.50
7018;BME280;3549;42.162;24.726;2022-11-02T04:21:53;47599.81;;;-141.97;78.13
7018;BME280;3549;42.162;24.726;2022-11-02T04:24:37;47588.28;;;-141.97;78.81
7018;BME280;3549;42.162;24.726;2022-11-02T04:27:29;47567.13;;;-141.97;78.32
7018;BME280;3549;42.162;24.726;2022-11-02T04:29:54;47542.16;;;-141.97;78.48
7018;BME280;3549;42.162;24.726;2022-11-02T04:32:19;47661.31;;;-141.97;78.71
7018;BME280;3549;42.162;24.726;2022-11-02T04:35:03;47569.06;;;-141.97;78.04
7018;BME280;3549;42.162;24.726;2022-11-02T04:37:29;47594.03;;;-141.97;77.65
7018;BME280;3549;42.162;24.726;2022-11-02T04:40:13;47574.81;;;-141.97;77.67
7018;BME280;3549;42.162;24.726;2022-11-02T04:42:38;47699.75;;;-141.97;77.82
7018;BME280;3549;42.162;24.726;2022-11-02T04:45:03;47578.66;;;-141.97;77.48
7018;BME280;3549;42.162;24.726;2022-11-02T04:47:29;47563.28;;;-141.97;76.83
7018;BME280;3549;42.162;24.726;2022-11-02T04:49:54;47542.16;;;-141.97;76.86
7018;BME280;3549;42.162;24.726;2022-11-02T04:52:20;47578.66;;;-141.97;76.71
7018;BME280;3549;42.162;24.726;2022-11-02T04:54:45;47597.88;;;-141.97;76.12
7018;BME280;3549;42.162;24.726;2022-11-02T04:57:10;47565.22;;;-141.97;77.34
7018;BME280;3549;42.162;24.726;2022-11-02T04:59:36;47555.59;;;-141.97;77.34
7018;BME280;3549;42.162;24.726;2022-11-02T05:02:01;47553.69;;;-141.97;76.75
7018;BME280;3549;42.162;24.726;2022-11-02T05:04:26;47588.28;;;-141.97;75.76
7018;BME280;3549;42.162;24.726;2022-11-02T05:06:52;47588.28;;;-141.97;75.52
7018;BME280;3549;42.162;24.726;2022-11-02T05:09:17;47601.72;;;-141.97;74.91
7018;BME280;3549;42.162;24.726;2022-11-02T05:11:43;47578.66;;;-141.97;74.63
7018;BME280;3549;42.162;24.726;2022-11-02T05:14:08;47588.28;;;-141.97;74.24
7018;BME280;3549;42.162;24.726;2022-11-02T05:16:33;47563.28;;;-141.97;74.29
7018;BME280;3549;42.162;24.726;2022-11-02T05:18:59;47563.28;;;-141.97;75.24
7018;BME280;3549;42.162;24.726;2022-11-02T05:21:24;47582.50;;;-141.97;76.01
7018;BME280;3549;42.162;24.726;2022-11-02T05:23:49;47592.13;;;-141.97;76.66
7018;BME280;3549;42.162;24.726;2022-11-02T05:26:15;47603.66;;;-141.97;77.75
7018;BME280;3549;42.162;24.726;2022-11-02T05:28:40;47588.28;;;-141.97;77.50
7018;BME280;3549;42.162;24.726;2022-11-02T05:31:06;47565.22;;;-141.97;77.62
7018;BME280;3549;42.162;24.726;2022-11-02T05:33:32;47595.97;;;-141.97;76.92
7018;BME280;3549;42.162;24.726;2022-11-02T05:35:58;47567.13;;;-141.97;76.34
7018;BME280;3549;42.162;24.726;2022-11-02T05:38:25;47592.13;;;-141.97;75.47
7018;BME280;3549;42.162;24.726;2022-11-02T05:40:58;47586.34;;;-141.97;74.80
7018;BME280;3549;42.162;24.726;2022-11-02T05:43:24;47572.91;;;-141.97;74.10
7018;BME280;3549;42.162;24.726;2022-11-02T05:45:54;47578.66;;;-141.97;74.34
7018;BME280;3549;42.162;24.726;2022-11-02T05:48:21;47595.97;;;-141.97;74.32
7018;BME280;3549;42.162;24.726;2022-11-02T05:50:46;47665.16;;;-141.97;73.25
7018;BME280;3549;42.162;24.726;2022-11-02T05:53:12;47638.25;;;-141.97;72.69
7018;BME280;3549;42.162;24.726;2022-11-02T05:55:37;47599.81;;;-141.97;72.17
7018;BME280;3549;42.162;24.726;2022-11-02T05:58:02;47592.13;;;-141.97;72.14
7018;BME280;3549;42.162;24.726;2022-11-02T06:00:28;47553.69;;;-141.97;71.38
7018;BME280;3549;42.162;24.726;2022-11-02T06:02:57;47551.75;;;-141.97;70.66
7018;BME280;3549;42.162;24.726;2022-11-02T06:05:23;47551.75;;;-141.97;70.31
7018;BME280;3549;42.162;24.726;2022-11-02T06:07:49;47588.28;;;-141.97;69.67
7018;BME280;3549;42.162;24.726;2022-11-02T06:10:14;47572.91;;;-141.97;68.97
7018;BME280;3549;42.162;24.726;2022-11-02T06:12:40;47549.84;;;-141.97;68.72
7018;BME280;3549;42.162;24.726;2022-11-02T06:15:05;47561.38;;;-141.97;67.97
7018;BME280;3549;42.162;24.726;2022-11-02T06:17:38;47597.88;;;-141.97;67.49
7018;BME280;3549;42.162;24.726;2022-11-02T06:20:04;47601.72;;;-141.97;66.60
7018;BME280;3549;42.162;24.726;2022-11-02T06:22:30;47611.34;;;-141.97;66.57
7018;BME280;3549;42.162;24.726;2022-11-02T06:24:55;47561.38;;;-141.97;66.46
7018;BME280;3549;42.162;24.726;2022-11-02T06:27:21;47580.59;;;-141.97;66.15
7018;BME280;3549;42.162;24.726;2022-11-02T06:29:46;47576.75;;;-141.97;65.99
7018;BME280;3549;42.162;24.726;2022-11-02T06:32:12;47553.69;;;-141.97;65.47
7018;BME280;3549;42.162;24.726;2022-11-02T06:34:37;47584.44;;;-141.97;65.24
7018;BME280;3549;42.162;24.726;2022-11-02T06:37:03;47576.75;;;-141.97;64.69
7018;BME280;3549;42.162;24.726;2022-11-02T06:39:28;47572.91;;;-141.97;64.03
7018;BME280;3549;42.162;24.726;2022-11-02T06:41:53;47561.38;;;-141.97;63.33
7018;BME280;3549;42.162;24.726;2022-11-02T06:44:19;47576.75;;;-141.97;62.77
7018;BME280;3549;42.162;24.726;2022-11-02T06:46:44;47592.13;;;-141.97;61.86
7018;BME280;3549;42.162;24.726;2022-11-02T06:49:09;47659.38;;;-141.97;61.57
7018;BME280;3549;42.162;24.726;2022-11-02T06:51:35;47584.44;;;-141.97;60.69
7018;BME280;3549;42.162;24.726;2022-11-02T06:54:00;47549.84;;;-141.97;60.53
7018;BME280;3549;42.162;24.726;2022-11-02T06:56:26;47563.28;;;-141.97;59.61
7018;BME280;3549;42.162;24.726;2022-11-02T06:58:51;47538.28;;;-141.97;59.07
7018;BME280;3549;42.162;24.726;2022-11-02T07:01:16;47559.44;;;-141.97;58.36
7018;BME280;3549;42.162;24.726;2022-11-02T07:03:42;47509.47;;;-141.97;57.29
7018;BME280;3549;42.162;24.726;2022-11-02T07:06:10;47557.53;;;-141.97;56.71
7018;BME280;3549;42.162;24.726;2022-11-02T07:08:35;47422.97;;;-141.97;55.52
7018;BME280;3549;42.162;24.726;2022-11-02T07:11:01;47519.06;;;-141.97;55.14
7018;BME280;3549;42.162;24.726;2022-11-02T07:13:26;47534.44;;;-141.97;54.74
7018;BME280;3549;42.162;24.726;2022-11-02T07:15:53;47580.59;;;-141.97;54.05
7018;BME280;3549;42.162;24.726;2022-11-02T07:18:19;47594.03;;;-141.97;52.97
7018;BME280;3549;42.162;24.726;2022-11-02T07:20:44;47536.38;;;-141.97;53.22
7018;BME280;3549;42.162;24.726;2022-11-02T07:23:09;47526.75;;;-141.97;53.01
7018;BME280;3549;42.162;24.726;2022-11-02T07:25:35;47542.16;;;-141.97;53.35
7018;BME280;3549;42.162;24.726;2022-11-02T07:28:01;47569.06;;;-141.97;52.89
7018;BME280;3549;42.162;24.726;2022-11-02T07:30:28;47559.44;;;-141.97;52.93
7018;BME280;3549;42.162;24.726;2022-11-02T07:32:54;47542.16;;;-141.97;52.40
7018;BME280;3549;42.162;24.726;2022-11-02T07:35:20;47638.25;;;-141.97;51.71
7018;BME280;3549;42.162;24.726;2022-11-02T07:38:00;47551.75;;;-141.97;50.48
7018;BME280;3549;42.162;24.726;2022-11-02T07:40:26;47532.53;;;-141.97;49.62
7018;BME280;3549;42.162;24.726;2022-11-02T07:42:52;47542.16;;;-141.97;49.08
7018;BME280;3549;42.162;24.726;2022-11-02T07:45:19;47561.38;;;-141.97;48.43
7018;BME280;3549;42.162;24.726;2022-11-02T07:47:46;47559.44;;;-141.97;49.68
7018;BME280;3549;42.162;24.726;2022-11-02T07:50:13;47549.84;;;-141.97;50.90
7018;BME280;3549;42.162;24.726;2022-11-02T07:52:52;47546.00;;;-141.97;50.72
7018;BME280;3549;42.162;24.726;2022-11-02T07:55:20;47551.75;;;-141.97;50.06
7018;BME280;3549;42.162;24.726;2022-11-02T07:57:56;47567.13;;;-141.97;49.10
7018;BME280;3549;42.162;24.726;2022-11-02T08:00:23;47570.97;;;-141.97;47.94
7018;BME280;3549;42.162;24.726;2022-11-02T08:02:53;47549.84;;;-141.97;48.22
7018;BME280;3549;42.162;24.726;2022-11-02T08:05:18;47547.91;;;-141.97;48.47
7018;BME280;3549;42.162;24.726;2022-11-02T08:07:43;47553.69;;;-141.97;47.02
7018;BME280;3549;42.162;24.726;2022-11-02T08:10:09;47530.59;;;-141.97;46.24
7018;BME280;3549;42.162;24.726;2022-11-02T08:12:34;47576.75;;;-141.97;46.01
7018;BME280;3549;42.162;24.726;2022-11-02T08:14:59;47565.22;;;-141.97;45.17
7018;BME280;3549;42.162;24.726;2022-11-02T08:17:25;47536.38;;;-141.97;44.91
7018;BME280;3549;42.162;24.726;2022-11-02T08:19:50;47553.69;;;-141.97;44.39
7018;BME280;3549;42.162;24.726;2022-11-02T08:22:15;47526.75;;;-141.97;43.80
7018;BME280;3549;42.162;24.726;2022-11-02T08:24:41;47651.69;;;-141.97;43.91
7018;BME280;3549;42.162;24.726;2022-11-02T08:27:06;47544.06;;;-141.97;43.84
7018;BME280;3549;42.162;24.726;2022-11-02T08:29:32;47526.75;;;-141.97;42.60
7018;BME280;3549;42.162;24.726;2022-11-02T08:32:01;47461.41;;;-141.97;41.51
7018;BME280;3549;42.162;24.726;2022-11-02T08:34:27;47492.16;;;-141.97;41.18
7018;BME280;3549;42.162;24.726;2022-11-02T08:36:52;47559.44;;;-141.97;41.39
7018;BME280;3549;42.162;24.726;2022-11-02T08:39:17;47515.22;;;-141.97;40.51
7018;BME280;3549;42.162;24.726;2022-11-02T08:41:43;47515.22;;;-141.97;40.49
7018;BME280;3549;42.162;24.726;2022-11-02T08:44:11;47492.16;;;-141.97;40.50
7018;BME280;3549;42.162;24.726;2022-11-02T08:46:36;47499.84;;;-141.97;40.06
7018;BME280;3549;42.162;24.726;2022-11-02T08:49:02;47503.69;;;-141.97;39.68
7018;BME280;3549;42.162;24.726;2022-11-02T08:51:27;47482.56;;;-141.97;40.03
7018;BME280;3549;42.162;24.726;2022-11-02T08:53:53;47511.38;;;-141.97;39.89
7018;BME280;3549;42.162;24.726;2022-11-02T08:56:19;47490.25;;;-141.97;38.58
7018;BME280;3549;42.162;24.726;2022-11-02T08:58:44;47469.09;;;-141.97;38.38
7018;BME280;3549;42.162;24.726;2022-11-02T09:01:10;47484.47;;;-141.97;38.29
7018;BME280;3549;42.162;24.726;2022-11-02T09:03:35;47459.50;;;-141.97;37.66
7018;BME280;3549;42.162;24.726;2022-11-02T09:06:01;47440.28;;;-141.97;36.99
7018;BME280;3549;42.162;24.726;2022-11-02T09:08:27;47521.00;;;-141.97;36.33
7018;BME280;3549;42.162;24.726;2022-11-02T09:10:57;47461.41;;;-141.97;35.52
7018;BME280;3549;42.162;24.726;2022-11-02T09:13:22;47469.09;;;-141.97;35.57
7018;BME280;3549;42.162;24.726;2022-11-02T09:15:52;47488.31;;;-141.97;34.73
7018;BME280;3549;42.162;24.726;2022-11-02T09:18:18;47434.50;;;-141.97;34.48
7018;BME280;3549;42.162;24.726;2022-11-02T09:20:44;47447.97;;;-141.97;34.65
7018;BME280;3549;42.162;24.726;2022-11-02T09:23:10;47497.94;;;-141.97;34.26
7018;BME280;3549;42.162;24.726;2022-11-02T09:25:36;47453.72;;;-141.97;33.43
7018;BME280;3549;42.162;24.726;2022-11-02T09:28:01;47442.19;;;-141.97;33.56
7018;BME280;3549;42.162;24.726;2022-11-02T09:30:27;47461.41;;;-141.97;33.36
7018;BME280;3549;42.162;24.726;2022-11-02T09:32:54;47422.97;;;-141.97;33.51
7018;BME280;3549;42.162;24.726;2022-11-02T09:35:20;47424.91;;;-141.97;33.33
7018;BME280;3549;42.162;24.726;2022-11-02T09:37:45;47561.38;;;-141.97;32.58
7018;BME280;3549;42.162;24.726;2022-11-02T09:40:11;47396.06;;;-141.97;32.16
7018;BME280;3549;42.162;24.726;2022-11-02T09:42:43;47415.28;;;-141.97;31.41
7018;BME280;3549;42.162;24.726;2022-11-02T09:45:18;47430.66;;;-141.97;31.52
7018;BME280;3549;42.162;24.726;2022-11-02T09:47:48;47422.97;;;-141.97;31.45
7018;BME280;3549;42.162;24.726;2022-11-02T09:50:21;47403.75;;;-141.97;31.30
7018;BME280;3549;42.162;24.726;2022-11-02T09:52:59;47422.97;;;-141.97;30.85
7018;BME280;3549;42.162;24.726;2022-11-02T09:55:33;47403.75;;;-141.97;30.61
7018;BME280;3549;42.162;24.726;2022-11-02T09:58:04;47399.91;;;-141.97;30.25
7018;BME280;3549;42.162;24.726;2022-11-02T10:00:34;47430.66;;;-141.97;29.79
7018;BME280;3549;42.162;24.726;2022-11-02T10:03:31;47421.06;;;-141.97;29.69
7018;BME280;3549;42.162;24.726;2022-11-02T10:06:12;47378.78;;;-141.97;29.28
7018;BME280;3549;42.162;24.726;2022-11-02T10:08:48;47374.94;;;-141.97;29.08
7018;BME280;3549;42.162;24.726;2022-11-02T10:11:35;47374.94;;;-141.97;29.12
7018;BME280;3549;42.162;24.726;2022-11-02T10:14:26;47386.47;;;-141.97;29.29
7018;BME280;3549;42.162;24.726;2022-11-02T10:17:01;47374.94;;;-141.97;29.09
7018;BME280;3549;42.162;24.726;2022-11-02T10:19:33;47407.59;;;-141.97;29.02
7018;BME280;3549;42.162;24.726;2022-11-02T10:22:02;47376.84;;;-141.97;28.64
7018;BME280;3549;42.162;24.726;2022-11-02T10:26:59;47371.09;;;-141.97;27.71
7018;BME280;3549;42.162;24.726;2022-11-02T10:32:12;47373.00;;;-141.97;27.32
7018;BME280;3549;42.162;24.726;2022-11-02T10:34:40;47396.06;;;-141.97;27.04
7018;BME280;3549;42.162;24.726;2022-11-02T10:40:15;47396.06;;;-141.97;27.13
7018;BME280;3549;42.162;24.726;2022-11-02T10:53:25;47376.84;;;-141.97;26.96
7018;BME280;3549;42.162;24.726;2022-11-02T10:58:25;47340.34;;;-141.97;26.24
7018;BME280;3549;42.162;24.726;2022-11-02T11:01:04;47359.56;;;-141.97;26.35
7018;BME280;3549;42.162;24.726;2022-11-02T11:03:29;47365.31;;;-141.97;26.06
7018;BME280;3549;42.162;24.726;2022-11-02T11:05:59;47376.84;;;-141.97;26.25
7018;BME280;3549;42.162;24.726;2022-11-02T11:11:26;47405.69;;;-141.97;25.95
7018;BME280;3549;42.162;24.726;2022-11-02T11:19:00;47361.47;;;-141.97;26.17
7018;BME280;3549;42.162;24.726;2022-11-02T11:21:36;47346.09;;;-141.97;26.25
7018;BME280;3549;42.162;24.726;2022-11-02T11:24:17;47401.84;;;-141.97;26.13
7018;BME280;3549;42.162;24.726;2022-11-02T11:26:43;47361.47;;;-141.97;26.06
7018;BME280;3549;42.162;24.726;2022-11-02T11:29:21;47384.53;;;-141.97;25.92
7018;BME280;3549;42.162;24.726;2022-11-02T11:31:47;47386.47;;;-141.97;26.06
7018;BME280;3549;42.162;24.726;2022-11-02T11:34:25;47407.59;;;-141.97;25.89
7018;BME280;3549;42.162;24.726;2022-11-02T11:36:51;47382.63;;;-141.97;26.09
7018;BME280;3549;42.162;24.726;2022-11-02T11:39:28;47407.59;;;-141.97;26.12
7018;BME280;3549;42.162;24.726;2022-11-02T11:41:54;47361.47;;;-141.97;26.07
7018;BME280;3549;42.162;24.726;2022-11-02T11:44:21;47348.03;;;-141.97;26.02
7018;BME280;3549;42.162;24.726;2022-11-02T11:46:52;47361.47;;;-141.97;25.95
7018;BME280;3549;42.162;24.726;2022-11-02T11:49:31;47384.53;;;-141.97;26.09
7018;BME280;3549;42.162;24.726;2022-11-02T11:51:58;47373.00;;;-141.97;25.50
7018;BME280;3549;42.162;24.726;2022-11-02T11:54:25;47380.69;;;-141.97;25.59
7018;BME280;3549;42.162;24.726;2022-11-02T11:56:54;47438.34;;;-141.97;25.83
7018;BME280;3549;42.162;24.726;2022-11-02T12:01:45;47380.69;;;-141.97;25.67
7018;BME280;3549;42.162;24.726;2022-11-02T12:04:10;47371.09;;;-141.97;25.46
7018;BME280;3549;42.162;24.726;2022-11-02T12:25:54;47328.81;;;-141.97;24.02
7018;BME280;3549;42.162;24.726;2022-11-02T12:28:28;47374.94;;;-141.97;23.95
7018;BME280;3549;42.162;24.726;2022-11-02T12:31:27;47351.88;;;-141.97;23.52
7018;BME280;3549;42.162;24.726;2022-11-02T12:34:10;47351.88;;;-141.97;23.63
7018;BME280;3549;42.162;24.726;2022-11-02T12:36:57;47296.13;;;-141.97;23.70
7018;BME280;3549;42.162;24.726;2022-11-02T12:42:32;47348.03;;;-141.97;23.81
7018;BME280;3549;42.162;24.726;2022-11-02T12:47:54;47351.88;;;-141.97;23.01
7018;BME280;3549;42.162;24.726;2022-11-02T12:53:33;47342.25;;;-141.97;22.25
7018;BME280;3549;42.162;24.726;2022-11-02T12:56:03;47313.44;;;-141.97;22.11
7018;BME280;3549;42.162;24.726;2022-11-02T12:58:34;47349.94;;;-141.97;21.96
7018;BME280;3549;42.162;24.726;2022-11-02T13:01:10;47355.72;;;-141.97;22.25
7018;BME280;3549;42.162;24.726;2022-11-02T13:03:50;47296.13;;;-141.97;22.45
7018;BME280;3549;42.162;24.726;2022-11-02T13:06:25;47369.16;;;-141.97;22.29
7018;BME280;3549;42.162;24.726;2022-11-02T13:08:58;47355.72;;;-141.97;21.84
7018;BME280;3549;42.162;24.726;2022-11-02T13:11:34;47349.94;;;-141.97;22.10
7018;BME280;3549;42.162;24.726;2022-11-02T13:14:03;47346.09;;;-141.97;22.33
7018;BME280;3549;42.162;24.726;2022-11-02T13:16:47;47292.28;;;-141.97;22.68
7018;BME280;3549;42.162;24.726;2022-11-02T13:19:18;47334.56;;;-141.97;22.13
7018;BME280;3549;42.162;24.726;2022-11-02T13:21:49;47353.78;;;-141.97;22.45
7018;BME280;3549;42.162;24.726;2022-11-02T13:24:21;47307.66;;;-141.97;22.03
7018;BME280;3549;42.162;24.726;2022-11-02T13:26:49;47332.66;;;-141.97;22.59
7018;BME280;3549;42.162;24.726;2022-11-02T13:29:36;47334.56;;;-141.97;22.62
7018;BME280;3549;42.162;24.726;2022-11-02T13:32:14;47317.28;;;-141.97;22.59
7018;BME280;3549;42.162;24.726;2022-11-02T13:34:43;47326.88;;;-141.97;22.48
7018;BME280;3549;42.162;24.726;2022-11-02T13:37:27;47334.56;;;-141.97;22.77
7018;BME280;3549;42.162;24.726;2022-11-02T13:39:58;47292.28;;;-141.97;22.71
7018;BME280;3549;42.162;24.726;2022-11-02T13:45:35;47299.97;;;-141.97;22.74
7018;BME280;3549;42.162;24.726;2022-11-02T13:48:14;47371.09;;;-141.97;22.61
7018;BME280;3549;42.162;24.726;2022-11-02T13:50:52;47332.66;;;-141.97;22.70
7018;BME280;3549;42.162;24.726;2022-11-02T13:53:25;47349.94;;;-141.97;22.85
7018;BME280;3549;42.162;24.726;2022-11-02T13:55:57;47276.91;;;-141.97;23.34
7018;BME280;3549;42.162;24.726;2022-11-02T13:58:25;47357.63;;;-141.97;23.45
7018;BME280;3549;42.162;24.726;2022-11-02T14:00:53;47340.34;;;-141.97;23.48
7018;BME280;3549;42.162;24.726;2022-11-02T14:03:52;47361.47;;;-141.97;23.63
7018;BME280;3549;42.162;24.726;2022-11-02T14:06:20;47332.66;;;-141.97;23.94
7018;BME280;3549;42.162;24.726;2022-11-02T14:09:06;47392.22;;;-141.97;23.89
7018;BME280;3549;42.162;24.726;2022-11-02T14:16:42;47344.19;;;-141.97;24.42
7018;BME280;3549;42.162;24.726;2022-11-02T14:22:14;47324.97;;;-141.97;24.73
7018;BME280;3549;42.162;24.726;2022-11-02T14:29:49;47609.41;;;-141.97;25.08
7018;BME280;3549;42.162;24.726;2022-11-02T14:40:38;47388.38;;;-141.97;25.28
7018;BME280;3549;42.162;24.726;2022-11-02T14:48:50;47376.84;;;-141.97;25.54
7018;BME280;3549;42.162;24.726;2022-11-02T14:51:20;47398.00;;;-141.97;25.83
7018;BME280;3549;42.162;24.726;2022-11-02T14:53:47;47399.91;;;-141.97;25.66
7018;BME280;3549;42.162;24.726;2022-11-02T14:56:18;47384.53;;;-141.97;25.85
7018;BME280;3549;42.162;24.726;2022-11-02T14:58:54;47411.44;;;-141.97;26.03
7018;BME280;3549;42.162;24.726;2022-11-02T15:01:20;47403.75;;;-141.97;26.26